createdAt,value
2022-08-12T00:02:05.911Z,2.33
2022-08-12T00:08:09.923Z,2.10
2022-08-12T00:14:15.654Z,1.95
2022-08-12T00:16:59.323Z,2.13
2022-08-12T00:19:44.002Z,1.90
2022-08-12T00:22:28.128Z,1.92
2022-08-12T00:25:14.787Z,1.77
2022-08-12T00:27:58.288Z,1.88
2022-08-12T00:30:43.928Z,2.15
2022-08-12T00:33:29.722Z,2.03
2022-08-12T00:36:34.706Z,2.08
2022-08-12T00:39:19.661Z,1.83
2022-08-12T00:42:04.884Z,2.00
2022-08-12T00:44:35.670Z,1.88
2022-08-12T00:47:11.634Z,1.65
2022-08-12T00:49:57.868Z,2.00
2022-08-12T00:59:31.994Z,2.25
2022-08-12T01:02:12.161Z,2.08
2022-08-12T01:04:59.544Z,2.20
2022-08-12T01:07:43.949Z,1.85
2022-08-12T01:10:32.379Z,1.75
2022-08-12T01:13:07.177Z,2.08
2022-08-12T01:15:51.505Z,2.13
2022-08-12T01:18:23.674Z,2.05
2022-08-12T01:21:09.956Z,2.38
2022-08-12T01:23:56.387Z,2.05
2022-08-12T01:26:30.393Z,2.10
2022-08-12T01:29:03.484Z,2.25
2022-08-12T01:31:35.090Z,2.28
2022-08-12T01:34:33.415Z,2.00
2022-08-12T01:37:02.470Z,2.30
2022-08-12T01:39:36.121Z,3.42
2022-08-12T01:42:13.173Z,1.92
2022-08-12T01:48:19.640Z,2.33
2022-08-12T01:54:42.674Z,2.22
2022-08-12T02:07:46.068Z,2.92
2022-08-12T02:10:49.239Z,2.40
2022-08-12T02:13:49.171Z,2.22
2022-08-12T02:16:35.270Z,2.10
2022-08-12T02:19:22.969Z,2.00
2022-08-12T02:25:40.917Z,2.28
2022-08-12T02:28:11.988Z,2.53
2022-08-12T02:30:43.016Z,2.50
2022-08-12T02:33:15.203Z,1.90
2022-08-12T02:35:46.538Z,2.50
2022-08-12T02:38:17.733Z,2.38
2022-08-12T02:40:54.942Z,2.42
2022-08-12T02:43:34.903Z,2.00
2022-08-12T02:46:13.726Z,2.35
2022-08-12T02:49:01.029Z,2.22
2022-08-12T02:55:07.138Z,2.50
2022-08-12T02:57:41.364Z,2.40
2022-08-12T03:00:43.424Z,2.63
2022-08-12T03:03:30.547Z,2.92
2022-08-12T03:06:04.305Z,2.42
2022-08-12T03:08:44.798Z,2.80
2022-08-12T03:11:25.464Z,2.90
2022-08-12T03:14:03.371Z,2.75
2022-08-12T03:16:36.816Z,2.63
2022-08-12T03:19:10.219Z,2.55
2022-08-12T03:21:52.843Z,2.60
2022-08-12T03:24:33.094Z,2.65
2022-08-12T03:27:06.296Z,2.45
2022-08-12T03:30:20.032Z,2.88
2022-08-12T03:32:55.057Z,2.50
2022-08-12T03:35:41.148Z,2.70
2022-08-12T03:38:16.409Z,3.35
2022-08-12T03:41:29.680Z,2.63
2022-08-12T03:54:42.715Z,2.80
2022-08-12T03:57:26.124Z,2.90
2022-08-12T04:23:01.879Z,3.00
2022-08-12T04:25:36.121Z,3.20
2022-08-12T04:28:13.791Z,3.15
2022-08-12T04:30:44.892Z,3.13
2022-08-12T04:33:15.959Z,3.10
2022-08-12T04:35:46.849Z,2.92
2022-08-12T04:38:20.825Z,2.72
2022-08-12T04:40:52.051Z,3.00
2022-08-12T04:44:00.019Z,2.60
2022-08-12T04:46:14.548Z,3.20
2022-08-12T04:48:46.776Z,3.05
2022-08-12T04:51:20.784Z,3.42
2022-08-12T04:53:54.875Z,3.00
2022-08-12T04:56:25.972Z,3.20
2022-08-12T04:58:56.748Z,3.03
2022-08-12T05:01:31.397Z,3.30
2022-08-12T05:04:03.206Z,3.25
2022-08-12T05:06:34.808Z,3.30
2022-08-12T05:09:13.341Z,3.50
2022-08-12T05:11:53.700Z,3.25
2022-08-12T05:17:59.997Z,3.88
2022-08-12T05:20:34.171Z,3.47
2022-08-12T05:23:13.815Z,2.97
2022-08-12T05:25:50.519Z,3.38
2022-08-12T05:28:21.905Z,2.95
2022-08-12T05:30:52.860Z,3.95
2022-08-12T05:33:31.762Z,3.33
2022-08-12T05:36:02.522Z,3.40
2022-08-12T05:38:45.577Z,4.07
2022-08-12T05:41:21.982Z,3.08
2022-08-12T05:47:12.175Z,3.30
2022-08-12T05:49:50.408Z,3.63
2022-08-12T05:52:52.920Z,3.60
2022-08-12T05:55:29.366Z,3.22
2022-08-12T05:58:07.961Z,3.13
2022-08-12T06:00:39.639Z,3.38
2022-08-12T06:03:28.787Z,3.55
2022-08-12T06:06:09.277Z,2.88
2022-08-12T06:08:41.861Z,3.05
2022-08-12T06:11:13.270Z,3.00
2022-08-12T06:13:53.705Z,3.28
2022-08-12T06:16:26.494Z,3.15
2022-08-12T06:18:57.504Z,2.95
2022-08-12T06:24:56.617Z,3.20
2022-08-12T06:27:27.856Z,3.17
2022-08-12T06:30:07.099Z,2.97
2022-08-12T06:32:51.823Z,2.75
2022-08-12T06:39:14.576Z,3.10
2022-08-12T06:42:32.434Z,2.85
2022-08-12T06:45:11.798Z,2.83
2022-08-12T06:47:43.429Z,2.88
2022-08-12T06:50:16.663Z,2.58
2022-08-12T06:52:47.912Z,2.83
2022-08-12T06:55:20.933Z,3.45
2022-08-12T06:58:07.932Z,3.28
2022-08-12T07:00:46.677Z,2.35
2022-08-12T07:03:25.893Z,2.67
2022-08-12T07:05:57.263Z,2.72
2022-08-12T07:08:30.471Z,2.60
2022-08-12T07:11:03.183Z,3.30
2022-08-12T07:16:27.092Z,2.42
2022-08-12T07:18:59.288Z,2.42
2022-08-12T07:21:59.645Z,2.83
2022-08-12T07:24:25.113Z,2.45
2022-08-12T07:26:56.473Z,2.05
2022-08-12T07:30:03.627Z,2.28
2022-08-12T07:32:25.882Z,2.70
2022-08-12T07:35:00.367Z,2.40
2022-08-12T07:37:31.661Z,2.72
2022-08-12T07:40:02.605Z,2.20
2022-08-12T07:42:34.387Z,2.10
2022-08-12T07:45:07.599Z,2.15
2022-08-12T07:47:43.676Z,2.35
2022-08-12T07:50:20.071Z,2.42
2022-08-12T07:52:53.927Z,2.10
2022-08-12T07:55:25.023Z,2.40
2022-08-12T07:57:59.617Z,2.22
2022-08-12T08:00:33.123Z,2.40
2022-08-12T08:03:08.988Z,2.30
2022-08-12T08:05:46.529Z,2.42
2022-08-12T08:08:19.354Z,2.30
2022-08-12T08:10:51.019Z,1.98
2022-08-12T08:13:20.792Z,2.47
2022-08-12T08:16:03.424Z,2.20
2022-08-12T08:18:37.850Z,2.53
2022-08-12T08:21:09.227Z,2.50
2022-08-12T08:23:56.247Z,2.47
2022-08-12T08:26:29.004Z,2.08
2022-08-12T08:29:09.120Z,2.08
2022-08-12T08:31:45.250Z,2.53
2022-08-12T08:34:47.316Z,2.10
2022-08-12T08:37:15.606Z,2.30
2022-08-12T08:42:31.114Z,2.28
2022-08-12T08:45:13.146Z,2.30
2022-08-12T08:47:47.192Z,2.15
2022-08-12T08:50:21.480Z,1.88
2022-08-12T08:52:52.340Z,2.00
2022-08-12T08:55:33.433Z,2.30
2022-08-12T08:58:13.600Z,2.20
2022-08-12T09:00:44.512Z,2.10
2022-08-12T09:05:09.308Z,2.30
2022-08-12T09:06:17.058Z,2.08
2022-08-12T09:08:48.464Z,2.30
2022-08-12T09:12:11.607Z,1.85
2022-08-12T09:14:29.318Z,1.90
2022-08-12T09:17:00.430Z,2.00
2022-08-12T09:19:31.189Z,1.60
2022-08-12T09:22:07.761Z,1.80
2022-08-12T09:24:39.693Z,2.20
2022-08-12T09:27:16.600Z,2.05
2022-08-12T09:30:09.995Z,2.42
2022-08-12T09:33:05.219Z,1.75
2022-08-12T09:35:43.263Z,2.15
2022-08-12T09:38:28.009Z,2.03
2022-08-12T09:42:08.603Z,1.75
2022-08-12T09:44:04.843Z,2.40
2022-08-12T09:46:37.162Z,1.70
2022-08-12T09:49:16.540Z,1.73
2022-08-12T09:51:49.278Z,1.85
2022-08-12T09:54:32.992Z,2.00
2022-08-12T09:58:07.541Z,1.90
2022-08-12T10:00:17.834Z,2.35
2022-08-12T10:03:31.241Z,1.98
2022-08-12T10:06:26.591Z,1.98
2022-08-12T10:08:56.952Z,2.03
2022-08-12T10:12:12.269Z,1.67
2022-08-12T10:14:34.926Z,1.67
2022-08-12T10:17:08.575Z,1.85
2022-08-12T10:19:40.751Z,1.75
2022-08-12T10:22:40.487Z,1.80
2022-08-12T10:26:10.037Z,2.30
2022-08-12T10:28:34.961Z,2.10
2022-08-12T10:31:06.131Z,2.45
2022-08-12T10:33:50.651Z,1.73
2022-08-12T10:36:36.189Z,1.88
2022-08-12T10:39:59.164Z,2.30
2022-08-12T10:42:16.744Z,1.90
2022-08-12T10:45:05.961Z,2.40
2022-08-12T10:48:07.457Z,1.88
2022-08-12T10:50:56.280Z,2.03
2022-08-12T10:53:43.652Z,1.85
2022-08-12T10:56:15.626Z,2.03
2022-08-12T10:58:47.914Z,1.60
2022-08-12T11:04:14.374Z,1.70
2022-08-12T11:04:24.253Z,2.03
2022-08-12T11:08:35.126Z,1.90
2022-08-12T11:10:01.845Z,2.22
2022-08-12T11:12:59.765Z,2.33
2022-08-12T11:16:02.649Z,2.20
2022-08-12T11:18:23.455Z,2.08
2022-08-12T11:20:57.989Z,1.80
2022-08-12T11:23:37.189Z,2.00
2022-08-12T11:26:10.343Z,2.17
2022-08-12T11:28:41.487Z,1.98
2022-08-12T11:31:14.371Z,2.38
2022-08-12T11:34:51.126Z,1.90
2022-08-12T11:37:04.647Z,1.88
2022-08-12T11:42:30.827Z,1.90
2022-08-12T11:45:17.340Z,2.00
2022-08-12T11:47:49.234Z,2.80
2022-08-12T11:50:24.704Z,2.30
2022-08-12T11:53:03.430Z,1.90
2022-08-12T11:55:34.616Z,1.90
2022-08-12T11:59:14.614Z,1.75
2022-08-12T12:04:00.781Z,2.17
2022-08-12T12:06:36.704Z,1.77
2022-08-12T12:09:08.307Z,2.03
2022-08-12T12:11:48.856Z,1.75
2022-08-12T12:14:21.176Z,1.63
2022-08-12T12:17:10.352Z,2.03
2022-08-12T12:19:46.247Z,2.22
2022-08-12T12:22:22.986Z,2.08
2022-08-12T12:24:54.331Z,1.83
2022-08-12T12:27:39.353Z,1.90
2022-08-12T12:30:29.937Z,2.10
2022-08-12T12:33:01.780Z,1.95
2022-08-12T12:36:18.977Z,2.30
2022-08-12T12:38:26.896Z,1.90
2022-08-12T12:40:57.981Z,1.95
2022-08-12T12:43:42.976Z,2.13
2022-08-12T12:46:15.704Z,2.03
2022-08-12T12:48:46.627Z,2.10
2022-08-12T12:51:48.464Z,2.08
2022-08-12T12:54:13.999Z,2.30
2022-08-12T12:56:52.587Z,2.45
2022-08-12T12:59:54.625Z,2.03
2022-08-12T13:02:16.206Z,1.70
2022-08-12T13:05:02.939Z,2.42
2022-08-12T13:07:54.090Z,1.90
2022-08-12T13:10:30.652Z,2.10
2022-08-12T13:14:06.347Z,1.92
2022-08-12T13:15:54.197Z,2.00
2022-08-12T13:18:36.939Z,2.03
2022-08-12T13:25:07.026Z,2.17
2022-08-12T13:27:46.345Z,2.00
2022-08-12T13:30:23.788Z,1.90
2022-08-12T13:32:58.996Z,1.83
2022-08-12T13:36:02.806Z,2.03
2022-08-12T13:38:34.898Z,2.08
2022-08-12T13:41:11.179Z,2.08
2022-08-12T13:43:45.116Z,1.95
2022-08-12T13:46:17.716Z,1.98
2022-08-12T13:48:49.251Z,2.17
2022-08-12T13:51:24.062Z,2.47
2022-08-12T13:54:00.176Z,2.25
2022-08-12T13:56:38.632Z,2.22
2022-08-12T13:59:12.587Z,2.00
2022-08-12T14:01:44.204Z,2.22
2022-08-12T14:04:15.269Z,2.00
2022-08-12T14:06:50.732Z,2.25
2022-08-12T14:09:21.786Z,1.90
2022-08-12T14:11:59.535Z,2.10
2022-08-12T14:14:35.646Z,2.10
2022-08-12T14:17:10.827Z,1.95
2022-08-12T14:20:02.005Z,2.13
2022-08-12T14:22:34.349Z,1.95
2022-08-12T14:25:10.020Z,1.83
2022-08-12T14:28:03.321Z,1.92
2022-08-12T14:30:35.368Z,1.92
2022-08-12T14:33:10.963Z,2.00
2022-08-12T14:35:46.133Z,1.70
2022-08-12T14:38:26.132Z,1.70
2022-08-12T14:40:59.768Z,1.85
2022-08-12T14:43:44.457Z,2.72
2022-08-12T14:46:28.196Z,2.10
2022-08-12T14:48:59.536Z,2.25
2022-08-12T14:52:55.823Z,2.00
2022-08-12T14:57:56.661Z,1.83
2022-08-12T15:00:40.199Z,2.30
2022-08-12T15:03:15.452Z,1.73
2022-08-12T15:06:03.387Z,1.95
2022-08-12T15:08:40.219Z,2.10
2022-08-12T15:11:16.837Z,1.80
2022-08-12T15:13:54.593Z,1.67
2022-08-12T15:16:27.133Z,1.65
2022-08-12T15:19:01.137Z,1.98
2022-08-12T15:22:38.483Z,1.98
2022-08-12T15:24:37.677Z,1.80
2022-08-12T15:27:09.602Z,1.83
2022-08-12T15:29:41.914Z,1.85
2022-08-12T15:32:15.902Z,3.65
2022-08-12T15:34:49.897Z,1.83
2022-08-12T15:38:09.028Z,1.90
2022-08-12T15:40:30.175Z,2.03
2022-08-12T15:43:04.408Z,1.95
2022-08-12T15:45:46.887Z,1.80
2022-08-12T15:48:20.398Z,2.10
2022-08-12T15:50:55.269Z,2.10
2022-08-12T15:53:38.544Z,2.15
2022-08-12T15:56:12.727Z,2.00
2022-08-12T15:58:49.311Z,2.15
2022-08-12T16:01:21.737Z,1.95
2022-08-12T16:04:00.832Z,2.50
2022-08-12T16:09:56.478Z,1.75
2022-08-12T16:12:22.273Z,2.30
2022-08-12T16:14:55.425Z,2.72
2022-08-12T16:18:17.819Z,2.33
2022-08-12T16:20:21.491Z,2.00
2022-08-12T16:22:57.003Z,2.70
2022-08-12T16:26:02.967Z,2.33
2022-08-12T16:28:28.311Z,1.90
2022-08-12T16:30:59.404Z,2.70
2022-08-12T16:33:58.978Z,2.60
2022-08-12T16:36:28.528Z,1.90
2022-08-12T16:39:03.897Z,1.90
2022-08-12T16:41:39.956Z,2.42
2022-08-12T16:44:11.456Z,2.40
2022-08-12T16:46:57.656Z,2.10
2022-08-12T16:49:29.870Z,2.27
2022-08-12T16:52:15.242Z,2.20
2022-08-12T16:54:49.785Z,2.65
2022-08-12T16:57:34.579Z,1.98
2022-08-12T17:00:08.524Z,2.20
2022-08-12T17:02:40.462Z,2.00
2022-08-12T17:05:15.237Z,2.25
2022-08-12T17:07:52.489Z,2.25
2022-08-12T17:10:36.220Z,1.80
2022-08-12T17:13:10.654Z,2.10
2022-08-12T17:15:57.804Z,2.15
2022-08-12T17:18:42.214Z,1.80
2022-08-12T17:21:17.573Z,2.38
2022-08-12T17:23:54.322Z,2.22
2022-08-12T17:26:30.926Z,2.20
2022-08-12T17:29:03.425Z,2.00
2022-08-12T17:32:00.148Z,2.50
2022-08-12T17:34:39.988Z,2.10
2022-08-12T17:37:10.790Z,1.88
2022-08-12T17:40:12.770Z,1.92
2022-08-12T17:42:40.828Z,1.98
2022-08-12T17:45:17.112Z,2.30
2022-08-12T17:48:05.143Z,2.03
2022-08-12T17:50:39.786Z,2.10
2022-08-12T17:53:11.886Z,2.00
2022-08-12T17:55:48.216Z,2.17
2022-08-12T17:58:35.617Z,2.05
2022-08-12T18:01:11.312Z,2.28
2022-08-12T18:04:05.390Z,2.40
2022-08-12T18:06:35.560Z,2.20
2022-08-12T18:09:08.727Z,2.20
2022-08-12T18:12:04.216Z,2.13
2022-08-12T18:14:47.700Z,2.03
2022-08-12T18:17:19.836Z,2.00
2022-08-12T18:20:05.082Z,2.67
2022-08-12T18:22:38.988Z,2.40
2022-08-12T18:26:12.891Z,2.60
2022-08-12T18:28:16.853Z,2.47
2022-08-12T18:30:55.220Z,2.30
2022-08-12T18:33:29.353Z,2.63
2022-08-12T18:36:13.555Z,2.08
2022-08-12T18:38:51.152Z,2.78
2022-08-12T18:41:33.611Z,2.63
2022-08-12T18:44:09.922Z,2.72
2022-08-12T18:46:55.565Z,2.60
2022-08-12T18:49:33.352Z,2.63
2022-08-12T18:52:11.536Z,2.50
2022-08-12T18:54:49.092Z,2.72
2022-08-12T18:58:06.333Z,2.40
2022-08-12T19:00:22.375Z,2.60
2022-08-12T19:03:01.248Z,2.28
2022-08-12T19:05:54.291Z,2.67
2022-08-12T19:08:27.068Z,2.63
2022-08-12T19:11:19.050Z,2.28
2022-08-12T19:14:08.997Z,2.63
2022-08-12T19:16:44.119Z,2.35
2022-08-12T19:21:56.549Z,2.70
2022-08-12T19:24:40.353Z,2.40
2022-08-12T19:27:15.452Z,2.72
2022-08-12T19:30:06.562Z,3.10
2022-08-12T19:32:38.707Z,2.65
2022-08-12T19:38:07.270Z,2.50
2022-08-12T19:40:43.019Z,3.30
2022-08-12T19:43:21.964Z,2.72
2022-08-12T19:45:56.659Z,2.58
2022-08-12T19:48:32.678Z,2.70
2022-08-12T19:51:22.528Z,2.15
2022-08-12T19:53:58.257Z,2.67
2022-08-12T19:56:30.454Z,2.60
2022-08-12T19:59:15.229Z,2.55
2022-08-12T20:02:03.299Z,2.30
2022-08-12T20:04:38.718Z,2.92
2022-08-12T20:07:23.382Z,2.35
2022-08-12T20:09:57.093Z,2.70
2022-08-12T20:12:32.999Z,2.75
2022-08-12T20:15:09.479Z,2.67
2022-08-12T20:17:50.745Z,3.38
2022-08-12T20:20:28.215Z,2.78
2022-08-12T20:23:08.608Z,2.90
2022-08-12T20:25:52.929Z,2.90
2022-08-12T20:28:30.143Z,3.03
2022-08-12T20:31:01.810Z,2.53
2022-08-12T20:33:50.644Z,2.85
2022-08-12T20:36:42.213Z,2.63
2022-08-12T20:39:53.215Z,2.42
2022-08-12T20:42:11.810Z,2.67
2022-08-12T20:44:44.376Z,2.60
2022-08-12T20:47:17.900Z,2.38
2022-08-12T20:49:55.874Z,3.27
2022-08-12T20:52:35.046Z,2.50
2022-08-12T20:55:18.964Z,2.80
2022-08-12T20:58:02.672Z,2.85
2022-08-12T21:00:35.879Z,2.83
2022-08-12T21:03:18.943Z,3.17
2022-08-12T21:06:12.915Z,2.42
2022-08-12T21:08:46.090Z,2.47
2022-08-12T21:11:23.114Z,3.00
2022-08-12T21:13:59.114Z,2.75
2022-08-12T21:16:35.360Z,3.33
2022-08-12T21:19:11.969Z,3.17
2022-08-12T21:21:58.784Z,2.33
2022-08-12T21:24:32.388Z,2.75
2022-08-12T21:27:07.493Z,2.72
2022-08-12T21:29:50.112Z,3.08
2022-08-12T21:32:39.224Z,3.15
2022-08-12T21:35:18.949Z,2.70
2022-08-12T21:37:53.166Z,2.83
2022-08-12T21:40:37.221Z,3.03
2022-08-12T21:43:17.921Z,2.95
2022-08-12T21:46:00.704Z,3.33
2022-08-12T21:48:32.468Z,2.78
2022-08-12T21:51:03.220Z,2.70
2022-08-12T21:54:06.839Z,3.00
2022-08-12T21:56:38.993Z,3.10
2022-08-12T21:59:16.077Z,2.70
2022-08-12T22:01:49.629Z,3.00
2022-08-12T22:04:33.769Z,3.45
2022-08-12T22:07:06.893Z,2.83
2022-08-12T22:09:43.089Z,2.78
2022-08-12T22:15:01.001Z,2.95
2022-08-12T22:17:50.414Z,2.80
2022-08-12T22:20:29.438Z,2.90
2022-08-12T22:23:02.552Z,3.20
2022-08-12T22:25:34.396Z,2.80
2022-08-12T22:28:38.858Z,2.83
2022-08-12T22:31:15.152Z,3.10
2022-08-12T22:33:53.938Z,3.00
2022-08-12T22:36:29.247Z,2.85
2022-08-12T22:39:01.648Z,3.67
2022-08-12T22:41:44.730Z,2.67
2022-08-12T22:44:29.062Z,2.80
2022-08-12T22:47:16.715Z,3.35
2022-08-12T22:50:09.165Z,2.90
2022-08-12T22:53:15.460Z,2.85
2022-08-12T22:56:06.109Z,2.75
2022-08-12T22:58:41.225Z,2.85
2022-08-12T23:01:13.701Z,3.20
2022-08-12T23:03:55.749Z,2.92
2022-08-12T23:06:29.220Z,2.97
2022-08-12T23:09:00.259Z,3.08
2022-08-12T23:11:36.207Z,2.67
2022-08-12T23:14:12.548Z,3.28
2022-08-12T23:16:45.450Z,3.20
2022-08-12T23:19:29.808Z,3.00
2022-08-12T23:22:35.806Z,2.80
2022-08-12T23:25:01.551Z,2.95
2022-08-12T23:27:52.014Z,2.85
2022-08-12T23:30:31.357Z,3.13
2022-08-12T23:33:20.166Z,2.83
2022-08-12T23:36:03.651Z,3.30
2022-08-12T23:38:34.915Z,3.42
2022-08-12T23:41:08.993Z,3.20
2022-08-12T23:43:48.642Z,3.97
2022-08-12T23:46:22.758Z,3.45
2022-08-12T23:48:58.700Z,3.40
2022-08-12T23:51:36.699Z,3.50
2022-08-12T23:54:11.107Z,3.17
2022-08-12T23:57:11.094Z,3.25
2022-08-12T23:59:47.300Z,3.35
